sensor_id;sensor_type;location;lat;lon;timestamp;temperature;humidity
20881;DHT22;10600;53.096;8.802;2022-09-16T00:00:35;11.20;99.90
20881;DHT22;10600;53.096;8.802;2022-09-16T00:01:36;11.20;99.90
20881;DHT22;10600;53.096;8.802;2022-09-16T00:02:37;11.20;99.90
20881;DHT22;10600;53.096;8.802;2022-09-16T00:03:37;11.20;99.90
20881;DHT22;10600;53.096;8.802;2022-09-16T00:04:39;11.20;99.90
20881;DHT22;10600;53.096;8.802;2022-09-16T00:05:41;11.20;99.90
20881;DHT22;10600;53.096;8.802;2022-09-16T00:06:42;11.10;99.90
20881;DHT22;10600;53.096;8.802;2022-09-16T00:07:42;11.20;99.90
20881;DHT22;10600;53.096;8.802;2022-09-16T00:08:43;11.20;99.90
20881;DHT22;10600;53.096;8.802;2022-09-16T00:09:45;11.10;99.90
20881;DHT22;10600;53.096;8.802;2022-09-16T00:10:45;11.20;99.90
20881;DHT22;10600;53.096;8.802;2022-09-16T00:11:46;11.10;99.90
20881;DHT22;10600;53.096;8.802;2022-09-16T00:12:47;11.10;99.90
20881;DHT22;10600;53.096;8.802;2022-09-16T00:13:48;11.10;99.90
20881;DHT22;10600;53.096;8.802;2022-09-16T00:14:51;11.10;99.90
20881;DHT22;10600;53.096;8.802;2022-09-16T00:15:52;11.10;99.90
20881;DHT22;10600;53.096;8.802;2022-09-16T00:16:53;11.10;99.90
20881;DHT22;10600;53.096;8.802;2022-09-16T00:17:53;11.10;99.90
20881;DHT22;10600;53.096;8.802;2022-09-16T00:18:56;11.10;99.90
20881;DHT22;10600;53.096;8.802;2022-09-16T00:19:57;11.10;99.90
20881;DHT22;10600;53.096;8.802;2022-09-16T00:20:58;11.00;99.90
20881;DHT22;10600;53.096;8.802;2022-09-16T00:21:58;11.00;99.90
20881;DHT22;10600;53.096;8.802;2022-09-16T00:22:59;11.00;99.90
20881;DHT22;10600;53.096;8.802;2022-09-16T00:24:00;11.00;99.90
20881;DHT22;10600;53.096;8.802;2022-09-16T00:25:00;11.00;99.90
20881;DHT22;10600;53.096;8.802;2022-09-16T00:26:02;11.00;99.90
20881;DHT22;10600;53.096;8.802;2022-09-16T00:27:03;11.00;99.90
20881;DHT22;10600;53.096;8.802;2022-09-16T00:28:03;11.00;99.90
20881;DHT22;10600;53.096;8.802;2022-09-16T00:29:04;11.00;99.90
20881;DHT22;10600;53.096;8.802;2022-09-16T00:30:05;11.00;99.90
20881;DHT22;10600;53.096;8.802;2022-09-16T00:31:06;11.00;99.90
20881;DHT22;10600;53.096;8.802;2022-09-16T00:32:07;11.00;99.90
20881;DHT22;10600;53.096;8.802;2022-09-16T00:33:07;11.00;99.90
20881;DHT22;10600;53.096;8.802;2022-09-16T00:34:08;11.00;99.90
20881;DHT22;10600;53.096;8.802;2022-09-16T00:35:09;11.00;99.90
20881;DHT22;10600;53.096;8.802;2022-09-16T00:36:15;11.00;99.90
20881;DHT22;10600;53.096;8.802;2022-09-16T00:37:16;11.00;99.90
20881;DHT22;10600;53.096;8.802;2022-09-16T00:38:17;11.00;99.90
20881;DHT22;10600;53.096;8.802;2022-09-16T00:39:17;11.00;99.90
20881;DHT22;10600;53.096;8.802;2022-09-16T00:40:18;11.10;99.90
20881;DHT22;10600;53.096;8.802;2022-09-16T00:41:22;11.10;99.90
20881;DHT22;10600;53.096;8.802;2022-09-16T00:42:23;11.10;99.90
20881;DHT22;10600;53.096;8.802;2022-09-16T00:43:24;11.10;99.90
20881;DHT22;10600;53.096;8.802;2022-09-16T00:45:58;11.10;99.90
20881;DHT22;10600;53.096;8.802;2022-09-16T00:47:01;11.20;99.90
20881;DHT22;10600;53.096;8.802;2022-09-16T00:48:05;11.10;99.90
20881;DHT22;10600;53.096;8.802;2022-09-16T00:49:25;11.20;99.90
20881;DHT22;10600;53.096;8.802;2022-09-16T00:50:44;11.20;99.90
20881;DHT22;10600;53.096;8.802;2022-09-16T00:51:50;11.20;99.90
20881;DHT22;10600;53.096;8.802;2022-09-16T00:52:54;11.20;99.90
20881;DHT22;10600;53.096;8.802;2022-09-16T00:54:00;11.20;99.90
20881;DHT22;10600;53.096;8.802;2022-09-16T00:55:06;11.30;99.90
20881;DHT22;10600;53.096;8.802;2022-09-16T00:56:09;11.30;99.90
20881;DHT22;10600;53.096;8.802;2022-09-16T00:57:12;11.30;99.90
20881;DHT22;10600;53.096;8.802;2022-09-16T00:59:46;11.20;99.90
20881;DHT22;10600;53.096;8.802;2022-09-16T01:00:49;11.20;99.90
20881;DHT22;10600;53.096;8.802;2022-09-16T01:01:51;11.20;99.90
20881;DHT22;10600;53.096;8.802;2022-09-16T01:02:53;11.20;99.90
20881;DHT22;10600;53.096;8.802;2022-09-16T01:03:57;11.20;99.90
20881;DHT22;10600;53.096;8.802;2022-09-16T01:05:03;11.20;99.90
20881;DHT22;10600;53.096;8.802;2022-09-16T01:06:06;11.20;99.90
20881;DHT22;10600;53.096;8.802;2022-09-16T01:07:07;11.20;99.90
20881;DHT22;10600;53.096;8.802;2022-09-16T01:08:08;11.10;99.90
20881;DHT22;10600;53.096;8.802;2022-09-16T01:09:08;11.10;99.90
20881;DHT22;10600;53.096;8.802;2022-09-16T01:10:10;11.10;99.90
20881;DHT22;10600;53.096;8.802;2022-09-16T01:11:13;11.10;99.90
20881;DHT22;10600;53.096;8.802;2022-09-16T01:12:13;11.10;99.90
20881;DHT22;10600;53.096;8.802;2022-09-16T01:13:14;11.00;99.90
20881;DHT22;10600;53.096;8.802;2022-09-16T01:14:16;11.00;99.90
20881;DHT22;10600;53.096;8.802;2022-09-16T01:16:46;11.00;99.90
20881;DHT22;10600;53.096;8.802;2022-09-16T01:19:04;10.90;99.90
20881;DHT22;10600;53.096;8.802;2022-09-16T01:24:50;10.80;99.90
20881;DHT22;10600;53.096;8.802;2022-09-16T01:34:03;10.80;99.90
20881;DHT22;10600;53.096;8.802;2022-09-16T01:35:49;10.80;99.90
20881;DHT22;10600;53.096;8.802;2022-09-16T01:38:25;10.80;99.90
20881;DHT22;10600;53.096;8.802;2022-09-16T01:44:24;10.80;99.90
20881;DHT22;10600;53.096;8.802;2022-09-16T01:48:09;10.80;99.90
20881;DHT22;10600;53.096;8.802;2022-09-16T01:50:42;10.80;99.90
20881;DHT22;10600;53.096;8.802;2022-09-16T01:51:51;10.80;99.90
20881;DHT22;10600;53.096;8.802;2022-09-16T01:54:17;10.80;99.90
20881;DHT22;10600;53.096;8.802;2022-09-16T01:55:34;10.80;99.90
20881;DHT22;10600;53.096;8.802;2022-09-16T01:57:03;10.80;99.90
20881;DHT22;10600;53.096;8.802;2022-09-16T01:58:17;10.80;99.90
20881;DHT22;10600;53.096;8.802;2022-09-16T01:59:37;10.80;99.90
20881;DHT22;10600;53.096;8.802;2022-09-16T02:00:42;10.80;99.90
20881;DHT22;10600;53.096;8.802;2022-09-16T02:01:56;10.70;99.90
20881;DHT22;10600;53.096;8.802;2022-09-16T02:03:12;10.70;99.90
20881;DHT22;10600;53.096;8.802;2022-09-16T02:04:28;10.70;99.90
20881;DHT22;10600;53.096;8.802;2022-09-16T02:05:43;10.70;99.90
20881;DHT22;10600;53.096;8.802;2022-09-16T02:06:49;10.70;99.90
20881;DHT22;10600;53.096;8.802;2022-09-16T02:07:56;10.70;99.90
20881;DHT22;10600;53.096;8.802;2022-09-16T02:09:02;10.70;99.90
20881;DHT22;10600;53.096;8.802;2022-09-16T02:10:16;10.70;99.90
20881;DHT22;10600;53.096;8.802;2022-09-16T02:11:18;10.70;99.90
20881;DHT22;10600;53.096;8.802;2022-09-16T02:12:24;10.70;99.90
20881;DHT22;10600;53.096;8.802;2022-09-16T02:13:29;10.70;99.90
20881;DHT22;10600;53.096;8.802;2022-09-16T02:14:34;10.70;99.90
20881;DHT22;10600;53.096;8.802;2022-09-16T02:15:39;10.70;99.90
20881;DHT22;10600;53.096;8.802;2022-09-16T02:16:45;10.70;99.90
20881;DHT22;10600;53.096;8.802;2022-09-16T02:17:53;10.70;99.90
20881;DHT22;10600;53.096;8.802;2022-09-16T02:18:59;10.70;99.90
20881;DHT22;10600;53.096;8.802;2022-09-16T02:20:07;10.70;99.90
20881;DHT22;10600;53.096;8.802;2022-09-16T02:21:11;10.70;99.90
20881;DHT22;10600;53.096;8.802;2022-09-16T02:22:24;10.70;99.90
20881;DHT22;10600;53.096;8.802;2022-09-16T02:23:37;10.60;99.90
20881;DHT22;10600;53.096;8.802;2022-09-16T02:24:41;10.70;99.90
20881;DHT22;10600;53.096;8.802;2022-09-16T02:25:44;10.70;99.90
20881;DHT22;10600;53.096;8.802;2022-09-16T02:26:50;10.70;99.90
20881;DHT22;10600;53.096;8.802;2022-09-16T02:27:52;10.70;99.90
20881;DHT22;10600;53.096;8.802;2022-09-16T02:28:53;10.70;99.90
20881;DHT22;10600;53.096;8.802;2022-09-16T02:30:06;10.70;99.90
20881;DHT22;10600;53.096;8.802;2022-09-16T02:31:08;10.70;99.90
20881;DHT22;10600;53.096;8.802;2022-09-16T02:32:09;10.70;99.90
20881;DHT22;10600;53.096;8.802;2022-09-16T02:33:12;10.70;99.90
20881;DHT22;10600;53.096;8.802;2022-09-16T02:34:18;10.80;99.90
20881;DHT22;10600;53.096;8.802;2022-09-16T02:35:21;10.70;99.90
20881;DHT22;10600;53.096;8.802;2022-09-16T02:36:24;10.70;99.90
20881;DHT22;10600;53.096;8.802;2022-09-16T02:37:47;10.70;99.90
20881;DHT22;10600;53.096;8.802;2022-09-16T02:38:55;10.70;99.90
20881;DHT22;10600;53.096;8.802;2022-09-16T02:40:01;10.70;99.90
20881;DHT22;10600;53.096;8.802;2022-09-16T02:41:05;10.70;99.90
20881;DHT22;10600;53.096;8.802;2022-09-16T02:42:06;10.60;99.90
20881;DHT22;10600;53.096;8.802;2022-09-16T02:43:07;10.60;99.90
20881;DHT22;10600;53.096;8.802;2022-09-16T02:44:09;10.60;99.90
20881;DHT22;10600;53.096;8.802;2022-09-16T02:45:11;10.60;99.90
20881;DHT22;10600;53.096;8.802;2022-09-16T02:50:39;10.60;99.90
20881;DHT22;10600;53.096;8.802;2022-09-16T02:53:02;10.60;99.90
20881;DHT22;10600;53.096;8.802;2022-09-16T02:54:38;10.60;99.90
20881;DHT22;10600;53.096;8.802;2022-09-16T02:55:51;10.50;99.90
20881;DHT22;10600;53.096;8.802;2022-09-16T02:56:53;10.50;99.90
20881;DHT22;10600;53.096;8.802;2022-09-16T02:57:55;10.50;99.90
20881;DHT22;10600;53.096;8.802;2022-09-16T02:58:56;10.50;99.90
20881;DHT22;10600;53.096;8.802;2022-09-16T02:59:57;10.40;99.90
20881;DHT22;10600;53.096;8.802;2022-09-16T03:00:58;10.40;99.90
20881;DHT22;10600;53.096;8.802;2022-09-16T03:01:59;10.40;99.90
20881;DHT22;10600;53.096;8.802;2022-09-16T03:03:00;10.40;99.90
20881;DHT22;10600;53.096;8.802;2022-09-16T03:04:02;10.40;99.90
20881;DHT22;10600;53.096;8.802;2022-09-16T03:05:04;10.40;99.90
20881;DHT22;10600;53.096;8.802;2022-09-16T03:06:09;10.40;99.90
20881;DHT22;10600;53.096;8.802;2022-09-16T03:07:11;10.40;99.90
20881;DHT22;10600;53.096;8.802;2022-09-16T03:08:13;10.40;99.90
20881;DHT22;10600;53.096;8.802;2022-09-16T03:09:15;10.40;99.90
20881;DHT22;10600;53.096;8.802;2022-09-16T03:10:17;10.40;99.90
20881;DHT22;10600;53.096;8.802;2022-09-16T03:12:51;10.30;99.90
20881;DHT22;10600;53.096;8.802;2022-09-16T03:14:41;10.30;99.90
20881;DHT22;10600;53.096;8.802;2022-09-16T03:19:26;10.30;99.90
20881;DHT22;10600;53.096;8.802;2022-09-16T03:20:57;10.30;99.90
20881;DHT22;10600;53.096;8.802;2022-09-16T03:24:53;10.30;99.90
20881;DHT22;10600;53.096;8.802;2022-09-16T03:26:02;10.30;99.90
20881;DHT22;10600;53.096;8.802;2022-09-16T03:27:15;10.30;99.90
20881;DHT22;10600;53.096;8.802;2022-09-16T03:28:33;10.30;99.90
20881;DHT22;10600;53.096;8.802;2022-09-16T03:29:50;10.30;99.90
20881;DHT22;10600;53.096;8.802;2022-09-16T03:31:05;10.30;99.90
20881;DHT22;10600;53.096;8.802;2022-09-16T03:33:34;10.30;99.90
20881;DHT22;10600;53.096;8.802;2022-09-16T03:34:40;10.40;99.90
20881;DHT22;10600;53.096;8.802;2022-09-16T03:35:45;10.40;99.90
20881;DHT22;10600;53.096;8.802;2022-09-16T03:36:51;10.40;99.90
20881;DHT22;10600;53.096;8.802;2022-09-16T03:37:54;10.40;99.90
20881;DHT22;10600;53.096;8.802;2022-09-16T03:38:56;10.40;99.90
20881;DHT22;10600;53.096;8.802;2022-09-16T03:40:11;10.40;99.90
20881;DHT22;10600;53.096;8.802;2022-09-16T03:41:12;10.40;99.90
20881;DHT22;10600;53.096;8.802;2022-09-16T03:42:14;10.50;99.90
20881;DHT22;10600;53.096;8.802;2022-09-16T03:43:16;10.50;99.90
20881;DHT22;10600;53.096;8.802;2022-09-16T03:44:17;10.50;99.90
20881;DHT22;10600;53.096;8.802;2022-09-16T03:45:20;10.50;99.90
20881;DHT22;10600;53.096;8.802;2022-09-16T03:46:21;10.50;99.90
20881;DHT22;10600;53.096;8.802;2022-09-16T03:47:22;10.50;99.90
20881;DHT22;10600;53.096;8.802;2022-09-16T03:48:23;10.60;99.90
20881;DHT22;10600;53.096;8.802;2022-09-16T03:49:24;10.60;99.90
20881;DHT22;10600;53.096;8.802;2022-09-16T03:50:25;10.60;99.90
20881;DHT22;10600;53.096;8.802;2022-09-16T03:51:25;10.60;99.90
20881;DHT22;10600;53.096;8.802;2022-09-16T03:52:26;10.60;99.90
20881;DHT22;10600;53.096;8.802;2022-09-16T03:53:27;10.60;99.90
20881;DHT22;10600;53.096;8.802;2022-09-16T03:54:27;10.60;99.90
20881;DHT22;10600;53.096;8.802;2022-09-16T03:55:28;10.60;99.90
20881;DHT22;10600;53.096;8.802;2022-09-16T03:56:29;10.60;99.90
20881;DHT22;10600;53.096;8.802;2022-09-16T03:57:30;10.60;99.90
20881;DHT22;10600;53.096;8.802;2022-09-16T03:58:31;10.60;99.90
20881;DHT22;10600;53.096;8.802;2022-09-16T03:59:32;10.60;99.90
20881;DHT22;10600;53.096;8.802;2022-09-16T04:00:33;10.60;99.90
20881;DHT22;10600;53.096;8.802;2022-09-16T04:01:34;10.60;99.90
20881;DHT22;10600;53.096;8.802;2022-09-16T04:02:34;10.60;99.90
20881;DHT22;10600;53.096;8.802;2022-09-16T04:03:35;10.60;99.90
20881;DHT22;10600;53.096;8.802;2022-09-16T04:04:36;10.60;99.90
20881;DHT22;10600;53.096;8.802;2022-09-16T04:05:37;10.60;99.90
20881;DHT22;10600;53.096;8.802;2022-09-16T04:06:38;10.60;99.90
20881;DHT22;10600;53.096;8.802;2022-09-16T04:07:39;10.50;99.90
20881;DHT22;10600;53.096;8.802;2022-09-16T04:08:40;10.50;99.90
20881;DHT22;10600;53.096;8.802;2022-09-16T04:09:43;10.50;99.90
20881;DHT22;10600;53.096;8.802;2022-09-16T04:10:53;10.50;99.90
20881;DHT22;10600;53.096;8.802;2022-09-16T04:11:54;10.50;99.90
20881;DHT22;10600;53.096;8.802;2022-09-16T04:12:57;10.50;99.90
20881;DHT22;10600;53.096;8.802;2022-09-16T04:13:58;10.50;99.90
20881;DHT22;10600;53.096;8.802;2022-09-16T04:14:59;10.40;99.90
20881;DHT22;10600;53.096;8.802;2022-09-16T04:16:00;10.40;99.90
20881;DHT22;10600;53.096;8.802;2022-09-16T04:17:01;10.50;99.90
20881;DHT22;10600;53.096;8.802;2022-09-16T04:18:02;10.40;99.90
20881;DHT22;10600;53.096;8.802;2022-09-16T04:19:03;10.50;99.90
20881;DHT22;10600;53.096;8.802;2022-09-16T04:20:05;10.50;99.90
20881;DHT22;10600;53.096;8.802;2022-09-16T04:21:08;10.50;99.90
20881;DHT22;10600;53.096;8.802;2022-09-16T04:22:09;10.50;99.90
20881;DHT22;10600;53.096;8.802;2022-09-16T04:23:09;10.50;99.90
20881;DHT22;10600;53.096;8.802;2022-09-16T04:24:10;10.50;99.90
20881;DHT22;10600;53.096;8.802;2022-09-16T04:25:11;10.50;99.90
20881;DHT22;10600;53.096;8.802;2022-09-16T04:26:11;10.50;99.90
20881;DHT22;10600;53.096;8.802;2022-09-16T04:27:12;10.50;99.90
20881;DHT22;10600;53.096;8.802;2022-09-16T04:28:13;10.50;99.90
20881;DHT22;10600;53.096;8.802;2022-09-16T04:29:13;10.50;99.90
20881;DHT22;10600;53.096;8.802;2022-09-16T04:30:15;10.50;99.90
20881;DHT22;10600;53.096;8.802;2022-09-16T04:31:15;10.50;99.90
20881;DHT22;10600;53.096;8.802;2022-09-16T04:32:16;10.50;99.90
20881;DHT22;10600;53.096;8.802;2022-09-16T04:33:17;10.50;99.90
20881;DHT22;10600;53.096;8.802;2022-09-16T04:34:18;10.50;99.90
20881;DHT22;10600;53.096;8.802;2022-09-16T04:35:19;10.40;99.90
20881;DHT22;10600;53.096;8.802;2022-09-16T04:36:19;10.40;99.90
20881;DHT22;10600;53.096;8.802;2022-09-16T04:37:20;10.40;99.90
20881;DHT22;10600;53.096;8.802;2022-09-16T04:38:20;10.40;99.90
20881;DHT22;10600;53.096;8.802;2022-09-16T04:39:21;10.40;99.90
20881;DHT22;10600;53.096;8.802;2022-09-16T04:40:22;10.40;99.90
20881;DHT22;10600;53.096;8.802;2022-09-16T04:41:24;10.40;99.90
20881;DHT22;10600;53.096;8.802;2022-09-16T04:42:25;10.40;99.90
20881;DHT22;10600;53.096;8.802;2022-09-16T04:43:25;10.40;99.90
20881;DHT22;10600;53.096;8.802;2022-09-16T04:44:26;10.40;99.90
20881;DHT22;10600;53.096;8.802;2022-09-16T04:45:29;10.30;99.90
20881;DHT22;10600;53.096;8.802;2022-09-16T04:46:31;10.30;99.90
20881;DHT22;10600;53.096;8.802;2022-09-16T04:47:32;10.30;99.90
20881;DHT22;10600;53.096;8.802;2022-09-16T04:48:33;10.30;99.90
20881;DHT22;10600;53.096;8.802;2022-09-16T04:49:34;10.30;99.90
20881;DHT22;10600;53.096;8.802;2022-09-16T04:50:34;10.30;99.90
20881;DHT22;10600;53.096;8.802;2022-09-16T04:51:35;10.30;99.90
20881;DHT22;10600;53.096;8.802;2022-09-16T04:52:36;10.30;99.90
20881;DHT22;10600;53.096;8.802;2022-09-16T04:53:38;10.30;99.90
20881;DHT22;10600;53.096;8.802;2022-09-16T04:54:39;10.40;99.90
20881;DHT22;10600;53.096;8.802;2022-09-16T04:55:39;10.40;99.90
20881;DHT22;10600;53.096;8.802;2022-09-16T04:56:40;10.40;99.90
20881;DHT22;10600;53.096;8.802;2022-09-16T04:57:41;10.40;99.90
20881;DHT22;10600;53.096;8.802;2022-09-16T04:58:46;10.40;99.90
20881;DHT22;10600;53.096;8.802;2022-09-16T04:59:47;10.40;99.90
20881;DHT22;10600;53.096;8.802;2022-09-16T05:00:48;10.40;99.90
20881;DHT22;10600;53.096;8.802;2022-09-16T05:01:49;10.40;99.90
20881;DHT22;10600;53.096;8.802;2022-09-16T05:02:50;10.40;99.90
20881;DHT22;10600;53.096;8.802;2022-09-16T05:03:52;10.30;99.90
20881;DHT22;10600;53.096;8.802;2022-09-16T05:04:53;10.30;99.90
20881;DHT22;10600;53.096;8.802;2022-09-16T05:06:03;10.30;99.90
20881;DHT22;10600;53.096;8.802;2022-09-16T05:07:04;10.30;99.90
20881;DHT22;10600;53.096;8.802;2022-09-16T05:08:05;10.30;99.90
20881;DHT22;10600;53.096;8.802;2022-09-16T05:09:06;10.30;99.90
20881;DHT22;10600;53.096;8.802;2022-09-16T05:10:07;10.30;99.90
20881;DHT22;10600;53.096;8.802;2022-09-16T05:11:12;10.30;99.90
20881;DHT22;10600;53.096;8.802;2022-09-16T05:12:13;10.30;99.90
20881;DHT22;10600;53.096;8.802;2022-09-16T05:13:14;10.30;99.90
20881;DHT22;10600;53.096;8.802;2022-09-16T05:14:16;10.20;99.90
20881;DHT22;10600;53.096;8.802;2022-09-16T05:15:17;10.20;99.90
20881;DHT22;10600;53.096;8.802;2022-09-16T05:16:20;10.20;99.90
20881;DHT22;10600;53.096;8.802;2022-09-16T05:17:21;10.20;99.90
20881;DHT22;10600;53.096;8.802;2022-09-16T05:18:22;10.20;99.90
20881;DHT22;10600;53.096;8.802;2022-09-16T05:19:23;10.20;99.90
20881;DHT22;10600;53.096;8.802;2022-09-16T05:20:23;10.20;99.90
20881;DHT22;10600;53.096;8.802;2022-09-16T05:21:26;10.20;99.90
20881;DHT22;10600;53.096;8.802;2022-09-16T05:22:27;10.20;99.90
20881;DHT22;10600;53.096;8.802;2022-09-16T05:23:28;10.20;99.90
20881;DHT22;10600;53.096;8.802;2022-09-16T05:24:29;10.20;99.90
20881;DHT22;10600;53.096;8.802;2022-09-16T05:25:29;10.20;99.90
20881;DHT22;10600;53.096;8.802;2022-09-16T05:26:31;10.20;99.90
20881;DHT22;10600;53.096;8.802;2022-09-16T05:27:32;10.20;99.90
20881;DHT22;10600;53.096;8.802;2022-09-16T05:28:34;10.20;99.90
20881;DHT22;10600;53.096;8.802;2022-09-16T05:29:35;10.20;99.90
20881;DHT22;10600;53.096;8.802;2022-09-16T05:30:35;10.20;99.90
20881;DHT22;10600;53.096;8.802;2022-09-16T05:31:38;10.20;99.90
20881;DHT22;10600;53.096;8.802;2022-09-16T05:32:38;10.30;99.90
20881;DHT22;10600;53.096;8.802;2022-09-16T05:33:41;10.20;99.90
20881;DHT22;10600;53.096;8.802;2022-09-16T05:34:41;10.20;99.90
20881;DHT22;10600;53.096;8.802;2022-09-16T05:35:42;10.20;99.90
20881;DHT22;10600;53.096;8.802;2022-09-16T05:36:45;10.20;99.90
20881;DHT22;10600;53.096;8.802;2022-09-16T05:37:48;10.30;99.90
20881;DHT22;10600;53.096;8.802;2022-09-16T05:38:50;10.20;99.90
20881;DHT22;10600;53.096;8.802;2022-09-16T05:39:50;10.20;99.90
20881;DHT22;10600;53.096;8.802;2022-09-16T05:40:51;10.30;99.90
20881;DHT22;10600;53.096;8.802;2022-09-16T05:41:54;10.30;99.90
20881;DHT22;10600;53.096;8.802;2022-09-16T05:42:55;10.30;99.90
20881;DHT22;10600;53.096;8.802;2022-09-16T05:43:59;10.30;99.90
20881;DHT22;10600;53.096;8.802;2022-09-16T05:45:00;10.30;99.90
20881;DHT22;10600;53.096;8.802;2022-09-16T05:46:02;10.30;99.90
20881;DHT22;10600;53.096;8.802;2022-09-16T05:47:03;10.30;99.90
20881;DHT22;10600;53.096;8.802;2022-09-16T05:48:04;10.30;99.90
20881;DHT22;10600;53.096;8.802;2022-09-16T05:49:05;10.30;99.90
20881;DHT22;10600;53.096;8.802;2022-09-16T05:50:06;10.30;99.90
20881;DHT22;10600;53.096;8.802;2022-09-16T05:51:08;10.30;99.90
20881;DHT22;10600;53.096;8.802;2022-09-16T05:52:09;10.30;99.90
20881;DHT22;10600;53.096;8.802;2022-09-16T05:53:10;10.30;99.90
20881;DHT22;10600;53.096;8.802;2022-09-16T05:54:11;10.30;99.90
20881;DHT22;10600;53.096;8.802;2022-09-16T05:55:12;10.30;99.90
20881;DHT22;10600;53.096;8.802;2022-09-16T05:56:18;10.40;99.90
20881;DHT22;10600;53.096;8.802;2022-09-16T05:57:19;10.40;99.90
20881;DHT22;10600;53.096;8.802;2022-09-16T05:58:21;10.40;99.90
20881;DHT22;10600;53.096;8.802;2022-09-16T05:59:22;10.40;99.90
20881;DHT22;10600;53.096;8.802;2022-09-16T06:00:23;10.40;99.90
20881;DHT22;10600;53.096;8.802;2022-09-16T06:01:26;10.40;99.90
20881;DHT22;10600;53.096;8.802;2022-09-16T06:02:28;10.40;99.90
20881;DHT22;10600;53.096;8.802;2022-09-16T06:03:28;10.40;99.90
20881;DHT22;10600;53.096;8.802;2022-09-16T06:04:29;10.40;99.90
20881;DHT22;10600;53.096;8.802;2022-09-16T06:05:30;10.50;99.90
20881;DHT22;10600;53.096;8.802;2022-09-16T06:06:37;10.50;99.90
20881;DHT22;10600;53.096;8.802;2022-09-16T06:07:38;10.50;99.90
20881;DHT22;10600;53.096;8.802;2022-09-16T06:08:39;10.50;99.90
20881;DHT22;10600;53.096;8.802;2022-09-16T06:09:40;10.50;99.90
20881;DHT22;10600;53.096;8.802;2022-09-16T06:10:41;10.60;99.90
20881;DHT22;10600;53.096;8.802;2022-09-16T06:11:44;10.60;99.90
20881;DHT22;10600;53.096;8.802;2022-09-16T06:12:45;10.60;99.90
20881;DHT22;10600;53.096;8.802;2022-09-16T06:13:46;10.70;99.90
20881;DHT22;10600;53.096;8.802;2022-09-16T06:14:51;10.70;99.90
20881;DHT22;10600;53.096;8.802;2022-09-16T06:15:52;10.70;99.90
20881;DHT22;10600;53.096;8.802;2022-09-16T06:16:55;10.70;99.90
20881;DHT22;10600;53.096;8.802;2022-09-16T06:17:56;10.80;99.90
20881;DHT22;10600;53.096;8.802;2022-09-16T06:18:59;10.80;99.90
20881;DHT22;10600;53.096;8.802;2022-09-16T06:20:00;10.80;99.90
20881;DHT22;10600;53.096;8.802;2022-09-16T06:21:04;10.80;99.90
20881;DHT22;10600;53.096;8.802;2022-09-16T06:22:05;10.80;99.90
20881;DHT22;10600;53.096;8.802;2022-09-16T06:23:06;10.80;99.90
20881;DHT22;10600;53.096;8.802;2022-09-16T06:24:07;10.70;99.90
20881;DHT22;10600;53.096;8.802;2022-09-16T06:25:08;10.70;99.90
20881;DHT22;10600;53.096;8.802;2022-09-16T06:26:13;10.80;99.90
20881;DHT22;10600;53.096;8.802;2022-09-16T06:27:14;10.80;99.90
20881;DHT22;10600;53.096;8.802;2022-09-16T06:28:15;10.80;99.90
20881;DHT22;10600;53.096;8.802;2022-09-16T06:29:16;10.80;99.90
20881;DHT22;10600;53.096;8.802;2022-09-16T06:30:17;10.80;99.90
20881;DHT22;10600;53.096;8.802;2022-09-16T06:31:25;10.80;99.90
20881;DHT22;10600;53.096;8.802;2022-09-16T06:32:30;10.80;99.90
20881;DHT22;10600;53.096;8.802;2022-09-16T06:33:32;10.80;99.90
20881;DHT22;10600;53.096;8.802;2022-09-16T06:34:32;10.80;99.90
20881;DHT22;10600;53.096;8.802;2022-09-16T06:35:36;10.90;99.90
20881;DHT22;10600;53.096;8.802;2022-09-16T06:36:37;10.90;99.90
20881;DHT22;10600;53.096;8.802;2022-09-16T06:37:38;10.90;99.90
20881;DHT22;10600;53.096;8.802;2022-09-16T06:38:39;10.90;99.90
20881;DHT22;10600;53.096;8.802;2022-09-16T06:39:39;10.90;99.90
20881;DHT22;10600;53.096;8.802;2022-09-16T06:40:40;10.90;99.90
20881;DHT22;10600;53.096;8.802;2022-09-16T06:41:41;10.90;99.90
20881;DHT22;10600;53.096;8.802;2022-09-16T06:42:42;10.90;99.90
20881;DHT22;10600;53.096;8.802;2022-09-16T06:43:43;11.00;99.90
20881;DHT22;10600;53.096;8.802;2022-09-16T06:44:43;11.00;99.90
20881;DHT22;10600;53.096;8.802;2022-09-16T06:45:44;11.10;99.90
20881;DHT22;10600;53.096;8.802;2022-09-16T06:46:45;11.10;99.90
20881;DHT22;10600;53.096;8.802;2022-09-16T06:47:45;11.10;99.90
20881;DHT22;10600;53.096;8.802;2022-09-16T06:48:48;11.20;99.90
20881;DHT22;10600;53.096;8.802;2022-09-16T06:49:50;11.20;99.90
20881;DHT22;10600;53.096;8.802;2022-09-16T06:50:57;11.20;99.90
20881;DHT22;10600;53.096;8.802;2022-09-16T06:51:58;11.30;99.90
20881;DHT22;10600;53.096;8.802;2022-09-16T06:52:59;11.30;99.90
20881;DHT22;10600;53.096;8.802;2022-09-16T06:54:06;11.40;99.90
20881;DHT22;10600;53.096;8.802;2022-09-16T06:55:07;11.40;99.90
20881;DHT22;10600;53.096;8.802;2022-09-16T06:56:09;11.40;99.90
20881;DHT22;10600;53.096;8.802;2022-09-16T06:57:11;11.50;99.90
20881;DHT22;10600;53.096;8.802;2022-09-16T06:58:12;11.50;99.90
20881;DHT22;10600;53.096;8.802;2022-09-16T06:59:13;11.60;99.90
20881;DHT22;10600;53.096;8.802;2022-09-16T07:00:13;11.60;99.90
20881;DHT22;10600;53.096;8.802;2022-09-16T07:01:19;11.60;99.90
20881;DHT22;10600;53.096;8.802;2022-09-16T07:02:20;11.70;99.90
20881;DHT22;10600;53.096;8.802;2022-09-16T07:03:21;11.70;99.90
20881;DHT22;10600;53.096;8.802;2022-09-16T07:04:22;11.80;99.90
20881;DHT22;10600;53.096;8.802;2022-09-16T07:05:23;11.80;99.90
20881;DHT22;10600;53.096;8.802;2022-09-16T07:06:28;11.90;99.90
20881;DHT22;10600;53.096;8.802;2022-09-16T07:07:30;11.90;99.90
20881;DHT22;10600;53.096;8.802;2022-09-16T07:08:36;12.00;99.90
20881;DHT22;10600;53.096;8.802;2022-09-16T07:09:38;12.00;99.90
20881;DHT22;10600;53.096;8.802;2022-09-16T07:10:39;12.10;99.90
20881;DHT22;10600;53.096;8.802;2022-09-16T07:11:39;12.20;99.90
20881;DHT22;10600;53.096;8.802;2022-09-16T07:12:40;12.20;99.90
20881;DHT22;10600;53.096;8.802;2022-09-16T07:13:42;12.20;99.90
20881;DHT22;10600;53.096;8.802;2022-09-16T07:14:42;12.20;99.90
20881;DHT22;10600;53.096;8.802;2022-09-16T07:15:43;12.20;99.90
20881;DHT22;10600;53.096;8.802;2022-09-16T07:16:44;12.30;99.90
20881;DHT22;10600;53.096;8.802;2022-09-16T07:17:44;12.30;99.90
20881;DHT22;10600;53.096;8.802;2022-09-16T07:18:45;12.30;99.90
20881;DHT22;10600;53.096;8.802;2022-09-16T07:19:47;12.30;99.90
20881;DHT22;10600;53.096;8.802;2022-09-16T07:20:48;12.40;99.90
20881;DHT22;10600;53.096;8.802;2022-09-16T07:21:49;12.30;99.90
20881;DHT22;10600;53.096;8.802;2022-09-16T07:22:49;12.30;99.90
20881;DHT22;10600;53.096;8.802;2022-09-16T07:23:57;12.40;99.90
20881;DHT22;10600;53.096;8.802;2022-09-16T07:24:58;12.40;99.90